Time;durP1;ratioP1;P1;durP2;ratioP2;P2;SDS_P1;SDS_P2;PMS_P1;PMS_P2;Temp;Humidity;BMP_temperature;BMP_pressure;BME280_temperature;BME280_humidity;BME280_pressure;Samples;Min_cycle;Max_cycle;Signal;HPM_P1;HPM_P2
2022/01/04 00:00:09;;;;;;;8.00;5.90;;;8.80;99.90;;;;;;5096986;28;20204;-54
2022/01/04 00:02:37;;;;;;;6.33;5.50;;;8.80;99.90;;;;;;5092993;28;20189;-54
2022/01/04 00:05:08;;;;;;;6.83;5.10;;;8.80;99.90;;;;;;5114820;28;20212;-53
2022/01/04 00:07:36;;;;;;;6.17;5.43;;;8.80;99.90;;;;;;5124682;27;20269;-54
2022/01/04 00:10:07;;;;;;;7.03;5.37;;;8.90;99.90;;;;;;5120547;27;20204;-55
2022/01/04 00:15:21;;;;;;;9.33;6.30;;;8.90;99.90;;;;;;5135471;27;20236;-54
2022/01/04 00:17:50;;;;;;;11.57;7.30;;;8.90;99.90;;;;;;5134298;27;20224;-53
2022/01/04 00:20:19;;;;;;;6.97;5.97;;;8.80;99.90;;;;;;5116270;27;20231;-55
2022/01/04 00:22:48;;;;;;;9.40;6.37;;;8.80;99.90;;;;;;5114049;28;20248;-56
2022/01/04 00:25:16;;;;;;;7.30;5.80;;;8.70;99.90;;;;;;5113891;28;20205;-52
2022/01/04 00:27:44;;;;;;;9.77;6.47;;;8.70;99.90;;;;;;5113338;28;20231;-54
2022/01/04 00:30:13;;;;;;;9.20;6.40;;;8.70;99.90;;;;;;5114710;28;20203;-55
2022/01/04 00:32:41;;;;;;;9.00;6.30;;;8.70;99.90;;;;;;5114529;28;20205;-53
2022/01/04 00:35:09;;;;;;;7.17;5.87;;;8.70;99.90;;;;;;5114334;28;20258;-54
2022/01/04 00:37:39;;;;;;;10.17;5.80;;;8.80;99.90;;;;;;5112917;28;20220;-55
2022/01/04 00:40:09;;;;;;;9.67;6.10;;;8.80;99.90;;;;;;5114202;28;20744;-54
2022/01/04 00:42:37;;;;;;;8.07;5.40;;;8.80;99.90;;;;;;5113571;28;20205;-54
2022/01/04 00:45:06;;;;;;;7.93;5.53;;;8.80;99.90;;;;;;5113426;28;20221;-55
2022/01/04 00:47:45;;;;;;;9.30;6.00;;;8.80;99.90;;;;;;5113381;28;20222;-54
2022/01/04 00:50:12;;;;;;;9.20;6.17;;;8.80;99.90;;;;;;5113882;28;20245;-54
2022/01/04 00:52:42;;;;;;;8.90;6.67;;;8.80;99.90;;;;;;5113523;28;20199;-53
2022/01/04 00:55:10;;;;;;;7.80;5.67;;;8.80;99.90;;;;;;5113185;28;20199;-58
2022/01/04 00:57:39;;;;;;;9.53;5.90;;;8.80;99.90;;;;;;5112604;28;20312;-56
2022/01/04 01:00:10;;;;;;;9.17;5.63;;;8.80;99.90;;;;;;5112478;28;20253;-52
2022/01/04 01:02:38;;;;;;;7.73;5.67;;;8.70;99.90;;;;;;5113091;27;20205;-52
2022/01/04 01:05:08;;;;;;;11.47;6.47;;;8.70;99.90;;;;;;5134434;27;20207;-53
2022/01/04 01:07:36;;;;;;;7.27;5.03;;;8.70;99.90;;;;;;5101204;27;20220;-54
2022/01/04 01:10:22;;;;;;;5.90;5.20;;;8.70;99.90;;;;;;5113956;28;20208;-53
2022/01/04 01:12:51;;;;;;;9.50;5.17;;;8.70;99.90;;;;;;5115248;27;20236;-55
2022/01/04 01:15:19;;;;;;;6.83;4.77;;;8.70;99.90;;;;;;5121999;27;20246;-56
2022/01/04 01:17:47;;;;;;;8.17;4.90;;;8.70;99.90;;;;;;5112594;28;20786;-55
2022/01/04 01:20:16;;;;;;;8.80;5.20;;;8.70;99.90;;;;;;5110288;28;20239;-55
2022/01/04 01:22:44;;;;;;;8.47;5.73;;;8.80;99.90;;;;;;5130768;27;20203;-53
2022/01/04 01:25:14;;;;;;;7.67;5.33;;;8.70;99.90;;;;;;5133423;27;20199;-53
2022/01/04 01:27:42;;;;;;;7.27;4.50;;;8.70;99.90;;;;;;5133124;27;20227;-54
2022/01/04 01:30:12;;;;;;;5.60;4.50;;;8.70;99.90;;;;;;5133693;27;20272;-56
2022/01/04 01:32:40;;;;;;;6.47;4.40;;;8.60;99.90;;;;;;5133944;27;20230;-54
2022/01/04 01:35:08;;;;;;;4.17;3.70;;;8.70;99.90;;;;;;5124657;27;20229;-55
2022/01/04 01:37:36;;;;;;;5.83;3.27;;;8.60;99.90;;;;;;5111697;28;20286;-53
2022/01/04 01:40:07;;;;;;;3.30;3.00;;;8.70;99.90;;;;;;5112923;28;20631;-54
2022/01/04 01:42:36;;;;;;;2.97;2.43;;;8.70;99.90;;;;;;5112420;28;20213;-52
2022/01/04 01:45:05;;;;;;;4.93;3.03;;;8.70;99.90;;;;;;5112582;28;20204;-54
2022/01/04 01:47:33;;;;;;;7.07;3.27;;;8.70;99.90;;;;;;5112898;28;20264;-54
2022/01/04 01:50:01;;;;;;;5.07;2.73;;;8.80;99.90;;;;;;5104990;28;20260;-55
2022/01/04 01:52:29;;;;;;;3.20;2.40;;;8.80;99.90;;;;;;5112187;28;20232;-53
2022/01/04 01:54:58;;;;;;;2.90;2.13;;;8.80;99.90;;;;;;5132099;27;20283;-54
2022/01/04 01:57:26;;;;;;;2.57;2.30;;;8.80;99.90;;;;;;5111841;28;20258;-54
2022/01/04 01:59:55;;;;;;;2.50;2.30;;;8.80;99.90;;;;;;5118730;27;20586;-54
2022/01/04 02:02:24;;;;;;;2.87;2.10;;;8.60;99.90;;;;;;5130182;27;20206;-52
2022/01/04 02:04:52;;;;;;;4.03;2.00;;;8.60;99.90;;;;;;5107746;28;20240;-54
2022/01/04 02:07:21;;;;;;;3.03;1.90;;;8.70;99.90;;;;;;5111690;28;20254;-53
2022/01/04 02:10:01;;;;;;;2.30;2.10;;;8.70;99.90;;;;;;5112664;28;20231;-54
2022/01/04 02:12:29;;;;;;;2.90;2.13;;;8.70;99.90;;;;;;5111766;28;20231;-55
2022/01/04 02:14:58;;;;;;;2.00;1.80;;;8.70;99.90;;;;;;5099429;28;20580;-54
2022/01/04 02:17:27;;;;;;;2.83;2.10;;;8.70;99.90;;;;;;5102350;28;20696;-56
2022/01/04 02:19:57;;;;;;;3.30;2.30;;;8.70;99.90;;;;;;5116433;27;20206;-54
2022/01/04 02:22:26;;;;;;;5.70;3.00;;;8.80;99.90;;;;;;5132876;27;20228;-53
2022/01/04 02:24:55;;;;;;;3.23;2.93;;;8.80;99.90;;;;;;5132451;27;20223;-54
2022/01/04 02:27:23;;;;;;;4.93;3.07;;;8.80;99.90;;;;;;5130760;27;20223;-56
2022/01/04 02:29:52;;;;;;;3.50;2.77;;;8.80;99.90;;;;;;5132282;27;20631;-56
2022/01/04 02:32:20;;;;;;;3.60;2.80;;;8.80;99.90;;;;;;5115765;27;20246;-54
2022/01/04 02:34:49;;;;;;;3.93;3.27;;;8.90;99.90;;;;;;5111934;28;20204;-55
2022/01/04 02:37:23;;;;;;;5.40;4.03;;;8.80;99.90;;;;;;5110826;28;20235;-54
2022/01/04 02:39:52;;;;;;;5.13;3.30;;;8.80;99.90;;;;;;5112105;28;20253;-55
2022/01/04 02:42:20;;;;;;;5.10;3.50;;;8.80;99.90;;;;;;5111139;28;20332;-54
2022/01/04 02:44:48;;;;;;;5.37;3.53;;;8.90;99.90;;;;;;5111858;28;20239;-53
2022/01/04 02:47:17;;;;;;;3.53;3.23;;;8.90;99.90;;;;;;5110707;28;20251;-53
2022/01/04 02:49:45;;;;;;;3.80;3.40;;;8.90;99.90;;;;;;5111763;28;20219;-54
2022/01/04 02:52:13;;;;;;;4.80;3.00;;;8.90;99.90;;;;;;5110590;28;20226;-54
2022/01/04 02:54:43;;;;;;;4.70;3.10;;;8.90;99.90;;;;;;5111030;28;20253;-53
2022/01/04 02:57:11;;;;;;;5.20;3.30;;;8.80;99.90;;;;;;5128489;27;20268;-54
2022/01/04 02:59:39;;;;;;;3.47;2.93;;;8.90;99.90;;;;;;5115729;27;20678;-54
2022/01/04 03:02:07;;;;;;;4.33;3.20;;;8.90;99.90;;;;;;5111416;28;20620;-54
2022/01/04 03:04:35;;;;;;;3.83;3.17;;;8.90;99.90;;;;;;5111307;28;20677;-52
2022/01/04 03:07:04;;;;;;;3.53;3.23;;;8.90;99.90;;;;;;5111130;28;20700;-54
2022/01/04 03:09:32;;;;;;;4.10;3.10;;;8.90;99.90;;;;;;5111486;28;20207;-53
2022/01/04 03:12:02;;;;;;;4.00;3.17;;;8.80;99.90;;;;;;5111374;28;20572;-55
2022/01/04 03:14:30;;;;;;;3.67;2.70;;;8.80;99.90;;;;;;5110844;28;20237;-54
2022/01/04 03:16:58;;;;;;;3.10;2.80;;;8.80;99.90;;;;;;5110560;28;20265;-53
2022/01/04 03:19:26;;;;;;;3.77;2.93;;;8.80;99.90;;;;;;5119262;28;20575;-54
2022/01/04 03:21:54;;;;;;;2.90;2.70;;;8.80;99.90;;;;;;5131737;28;20207;-53
2022/01/04 03:24:23;;;;;;;3.23;2.37;;;8.70;99.90;;;;;;5131687;28;20211;-52
2022/01/04 03:26:51;;;;;;;2.97;2.43;;;8.70;99.90;;;;;;5129215;28;20231;-55
2022/01/04 03:29:20;;;;;;;2.70;2.50;;;8.70;99.90;;;;;;5110718;28;20250;-54
2022/01/04 03:31:49;;;;;;;3.17;2.70;;;8.80;99.90;;;;;;5110496;28;20204;-54
2022/01/04 03:34:17;;;;;;;2.80;2.57;;;8.80;99.90;;;;;;5111622;28;20578;-53
2022/01/04 03:36:45;;;;;;;3.73;2.40;;;8.80;99.90;;;;;;5110190;28;20255;-54
2022/01/04 03:39:14;;;;;;;2.73;2.40;;;8.80;99.90;;;;;;5114379;28;20223;-54
2022/01/04 03:41:46;;;;;;;4.70;2.50;;;8.70;99.90;;;;;;5110732;28;20199;-53
2022/01/04 03:44:18;;;;;;;3.60;2.53;;;8.70;99.90;;;;;;5115097;28;20202;-54
2022/01/04 03:46:48;;;;;;;2.60;2.20;;;8.70;99.90;;;;;;5114770;28;20915;-55
2022/01/04 03:49:17;;;;;;;3.63;2.30;;;8.70;99.90;;;;;;5115382;28;20203;-54
2022/01/04 03:51:45;;;;;;;3.07;2.30;;;8.70;99.90;;;;;;5114755;28;20235;-56
2022/01/04 03:54:14;;;;;;;3.20;2.27;;;8.70;99.90;;;;;;5113881;28;20195;-54
2022/01/04 03:56:42;;;;;;;2.20;1.90;;;8.70;99.90;;;;;;5114882;28;20360;-55
2022/01/04 03:59:10;;;;;;;2.53;1.77;;;8.70;99.90;;;;;;5114348;28;20272;-55
2022/01/04 04:01:38;;;;;;;3.17;2.07;;;8.70;99.90;;;;;;5115003;28;20204;-54
2022/01/04 04:04:08;;;;;;;2.20;2.00;;;8.70;99.90;;;;;;5114517;28;20219;-54
2022/01/04 04:06:37;;;;;;;2.43;1.87;;;8.70;99.90;;;;;;5114673;28;20255;-53
2022/01/04 04:09:05;;;;;;;2.20;2.00;;;8.70;99.90;;;;;;5114729;28;20229;-54
2022/01/04 04:11:33;;;;;;;2.10;1.80;;;8.70;99.90;;;;;;5115012;28;20234;-53
2022/01/04 04:14:01;;;;;;;2.87;2.30;;;8.70;99.90;;;;;;5114087;28;20207;-54
2022/01/04 04:16:29;;;;;;;3.87;2.90;;;8.70;99.90;;;;;;5113549;28;20265;-54
2022/01/04 04:18:57;;;;;;;4.07;2.77;;;8.70;99.90;;;;;;5134592;27;20258;-53
2022/01/04 04:21:27;;;;;;;3.03;2.67;;;8.80;99.90;;;;;;5134860;27;20248;-54
2022/01/04 04:23:55;;;;;;;3.23;2.40;;;8.80;99.90;;;;;;5126552;27;20574;-55
2022/01/04 04:26:23;;;;;;;3.60;3.00;;;8.80;99.90;;;;;;5113172;28;20284;-54
2022/01/04 04:28:51;;;;;;;4.50;3.80;;;8.80;99.90;;;;;;5114188;28;20262;-54
2022/01/04 04:31:19;;;;;;;3.53;3.23;;;8.70;99.90;;;;;;5113905;28;20213;-54
2022/01/04 04:33:47;;;;;;;3.90;2.90;;;8.70;99.90;;;;;;5114315;28;20231;-53
2022/01/04 04:36:16;;;;;;;3.37;2.77;;;8.70;99.90;;;;;;5113472;28;20250;-54
2022/01/04 04:38:46;;;;;;;3.40;2.87;;;8.70;99.90;;;;;;5110413;28;20255;-54
2022/01/04 04:41:14;;;;;;;3.97;2.70;;;8.70;99.90;;;;;;5114558;28;20210;-54
2022/01/04 04:43:42;;;;;;;3.47;2.60;;;8.70;99.90;;;;;;5113662;28;20200;-54
2022/01/04 04:46:11;;;;;;;3.97;2.90;;;8.70;99.90;;;;;;5114245;28;20310;-54
2022/01/04 04:48:39;;;;;;;4.63;2.63;;;8.70;99.90;;;;;;5122636;27;20206;-54
2022/01/04 04:51:07;;;;;;;3.97;2.43;;;8.70;99.90;;;;;;5118130;27;20232;-54
2022/01/04 04:53:35;;;;;;;2.80;2.43;;;8.70;99.90;;;;;;5112981;28;20732;-53
2022/01/04 04:56:05;;;;;;;3.70;2.53;;;8.70;99.90;;;;;;5113213;28;20208;-54
2022/01/04 04:58:33;;;;;;;3.20;2.23;;;8.70;99.90;;;;;;5113060;28;20253;-53
2022/01/04 05:01:01;;;;;;;2.77;2.50;;;8.70;99.90;;;;;;5107795;28;20212;-54
2022/01/04 05:03:30;;;;;;;2.73;2.53;;;8.60;99.90;;;;;;5113307;28;20269;-53
2022/01/04 05:05:58;;;;;;;2.80;2.57;;;8.70;99.90;;;;;;5113728;28;20231;-53
2022/01/04 05:08:26;;;;;;;3.27;2.70;;;8.60;99.90;;;;;;5096902;28;20293;-54
2022/01/04 05:10:54;;;;;;;3.20;2.50;;;8.60;99.90;;;;;;5093090;28;20234;-54
2022/01/04 05:13:23;;;;;;;5.23;2.60;;;8.60;99.90;;;;;;5099657;28;20847;-53
2022/01/04 05:15:52;;;;;;;2.40;2.20;;;8.60;99.90;;;;;;5113493;28;20254;-54
2022/01/04 05:18:21;;;;;;;3.30;2.70;;;8.60;99.90;;;;;;5113779;28;20234;-54
2022/01/04 05:20:49;;;;;;;2.57;2.23;;;8.70;99.90;;;;;;5112798;28;20225;-54
2022/01/04 05:23:17;;;;;;;3.93;3.00;;;8.60;99.90;;;;;;5113045;28;20710;-54
2022/01/04 05:25:45;;;;;;;3.50;2.70;;;8.60;99.90;;;;;;5112719;28;20208;-54
2022/01/04 05:28:13;;;;;;;2.87;2.67;;;8.60;99.90;;;;;;5112498;28;20246;-53
2022/01/04 05:30:42;;;;;;;3.73;3.03;;;8.60;99.90;;;;;;5113316;28;20221;-53
2022/01/04 05:33:11;;;;;;;2.97;2.70;;;8.60;99.90;;;;;;5113534;28;20204;-55
2022/01/04 05:35:39;;;;;;;2.90;2.60;;;8.60;99.90;;;;;;5109542;28;20227;-54
2022/01/04 05:38:07;;;;;;;3.80;3.33;;;8.60;99.90;;;;;;5113036;28;20758;-58
2022/01/04 05:40:35;;;;;;;5.73;5.03;;;8.60;99.90;;;;;;5114209;28;20297;-53
2022/01/04 05:43:03;;;;;;;9.67;7.83;;;8.60;99.90;;;;;;5112768;28;20210;-53
2022/01/04 05:45:31;;;;;;;8.30;7.17;;;8.50;99.90;;;;;;5127217;27;20207;-53
2022/01/04 05:48:01;;;;;;;8.47;7.67;;;8.50;99.90;;;;;;5120900;27;20718;-55
2022/01/04 05:50:30;;;;;;;3.90;3.50;;;8.50;99.90;;;;;;5102918;28;20196;-55
2022/01/04 05:52:58;;;;;;;3.47;3.17;;;8.50;99.90;;;;;;5120132;27;20691;-54
2022/01/04 05:55:26;;;;;;;3.47;2.50;;;8.50;99.90;;;;;;5133075;27;20199;-54
2022/01/04 05:57:54;;;;;;;4.40;3.03;;;8.50;99.90;;;;;;5113217;27;20298;-53
2022/01/04 06:00:22;;;;;;;6.10;4.30;;;8.50;99.90;;;;;;5096246;28;20284;-54
2022/01/04 06:02:50;;;;;;;6.43;5.70;;;8.40;99.90;;;;;;5104618;28;20204;-53
2022/01/04 06:05:20;;;;;;;5.00;4.50;;;8.40;99.90;;;;;;5112517;28;20211;-53
2022/01/04 06:07:48;;;;;;;5.17;4.10;;;8.30;99.90;;;;;;5112350;28;20259;-54
2022/01/04 06:10:16;;;;;;;5.87;3.40;;;8.40;99.90;;;;;;5112338;28;20204;-53
2022/01/04 06:15:38;;;;;;;4.73;4.13;;;8.30;99.90;;;;;;5054329;28;20252;-54
2022/01/04 06:18:06;;;;;;;4.90;4.37;;;8.30;99.90;;;;;;5112503;28;20219;-54
2022/01/04 06:20:37;;;;;;;6.13;5.03;;;8.30;99.90;;;;;;5111727;28;20734;-54
2022/01/04 06:23:05;;;;;;;7.83;5.70;;;8.30;99.90;;;;;;5112210;28;20555;-53
2022/01/04 06:25:33;;;;;;;9.57;6.07;;;8.30;99.90;;;;;;5112277;28;20264;-52
2022/01/04 06:28:03;;;;;;;7.20;5.53;;;8.30;99.90;;;;;;5111283;28;20236;-53
2022/01/04 06:30:31;;;;;;;5.80;5.20;;;8.30;99.90;;;;;;5112033;28;20249;-54
2022/01/04 06:32:59;;;;;;;5.60;5.00;;;8.40;99.90;;;;;;5111625;28;20203;-53
2022/01/04 06:35:29;;;;;;;9.17;7.00;;;8.40;99.90;;;;;;5112261;28;20216;-54
2022/01/04 06:38:04;;;;;;;8.20;5.80;;;8.40;99.90;;;;;;5094944;28;20234;-53
2022/01/04 06:40:32;;;;;;;9.10;6.70;;;8.30;99.90;;;;;;5099120;27;20218;-54
2022/01/04 06:43:00;;;;;;;6.03;5.37;;;8.30;99.90;;;;;;5131683;27;20316;-53
2022/01/04 06:45:28;;;;;;;7.67;5.67;;;8.30;99.90;;;;;;5109881;27;20599;-53
2022/01/04 06:47:57;;;;;;;4.60;4.10;;;8.30;99.90;;;;;;5111554;28;20265;-54
2022/01/04 06:50:25;;;;;;;4.50;4.10;;;8.20;99.90;;;;;;5111528;28;20196;-54
2022/01/04 06:52:53;;;;;;;4.10;3.70;;;8.30;99.90;;;;;;5111682;28;20207;-54
2022/01/04 06:55:23;;;;;;;5.70;3.80;;;8.20;99.90;;;;;;5111079;28;20576;-55
2022/01/04 06:57:51;;;;;;;5.13;4.10;;;8.20;99.90;;;;;;5111398;28;20223;-54
2022/01/04 07:00:19;;;;;;;4.23;3.83;;;8.20;99.90;;;;;;5107209;28;20228;-53
2022/01/04 07:02:47;;;;;;;5.70;4.73;;;8.30;99.90;;;;;;5108022;28;20245;-54
2022/01/04 07:05:16;;;;;;;6.87;4.97;;;8.30;99.90;;;;;;5094595;28;20231;-55
2022/01/04 07:07:44;;;;;;;5.47;4.90;;;8.30;99.90;;;;;;5102503;28;20581;-55
2022/01/04 07:10:13;;;;;;;6.30;5.40;;;8.30;99.90;;;;;;5110420;28;20626;-54
2022/01/04 07:12:42;;;;;;;6.57;5.70;;;8.30;99.90;;;;;;5109251;28;20204;-54
2022/01/04 07:15:11;;;;;;;6.73;4.93;;;8.30;99.90;;;;;;5111756;28;20204;-54
2022/01/04 07:17:41;;;;;;;7.17;5.53;;;8.30;99.90;;;;;;5111247;28;20223;-54
2022/01/04 07:20:11;;;;;;;6.50;5.73;;;8.30;99.90;;;;;;5111207;28;20710;-54
2022/01/04 07:22:39;;;;;;;8.83;6.27;;;8.30;99.90;;;;;;5110378;28;20712;-54
2022/01/04 07:25:08;;;;;;;6.83;5.10;;;8.30;99.90;;;;;;5111582;28;20206;-55
2022/01/04 07:27:36;;;;;;;7.30;5.80;;;8.30;99.90;;;;;;5107804;28;20266;-53
2022/01/04 07:30:07;;;;;;;6.80;5.37;;;8.30;99.90;;;;;;5091240;28;20265;-54
2022/01/04 07:32:35;;;;;;;6.60;5.40;;;8.30;99.90;;;;;;5092571;28;20189;-54
2022/01/04 07:35:03;;;;;;;12.30;9.63;;;8.20;99.90;;;;;;5111150;28;20239;-55
2022/01/04 07:37:31;;;;;;;6.23;5.37;;;8.30;99.90;;;;;;5100732;28;20265;-54
2022/01/04 07:39:59;;;;;;;7.37;6.43;;;8.20;99.90;;;;;;5091205;28;20255;-54
2022/01/04 07:42:27;;;;;;;8.30;6.50;;;8.20;99.90;;;;;;5106534;28;20239;-54
2022/01/04 07:44:55;;;;;;;6.73;5.10;;;8.30;99.90;;;;;;5110918;28;20672;-54
2022/01/04 07:47:26;;;;;;;7.33;5.60;;;8.30;99.90;;;;;;5111307;28;20309;-54
2022/01/04 07:49:54;;;;;;;7.03;5.20;;;8.30;99.90;;;;;;5110800;28;20208;-54
2022/01/04 07:52:22;;;;;;;6.57;5.40;;;8.20;99.90;;;;;;5113457;28;20199;-54
2022/01/04 07:54:51;;;;;;;6.03;5.30;;;8.20;99.90;;;;;;5125406;28;20264;-55
2022/01/04 07:57:19;;;;;;;4.60;4.20;;;8.20;99.90;;;;;;5089159;28;20236;-51
2022/01/04 07:59:47;;;;;;;5.40;4.50;;;8.20;99.90;;;;;;5089682;28;20228;-55
2022/01/04 08:02:16;;;;;;;5.63;5.03;;;8.30;99.90;;;;;;5089775;28;20247;-56
2022/01/04 08:04:45;;;;;;;7.17;5.13;;;8.20;99.90;;;;;;5090301;28;20203;-54
2022/01/04 08:07:13;;;;;;;6.17;5.57;;;8.30;99.90;;;;;;5089690;28;20284;-53
2022/01/04 08:09:42;;;;;;;5.53;4.83;;;8.30;99.90;;;;;;5090720;28;20200;-53
2022/01/04 08:12:10;;;;;;;6.57;4.70;;;8.30;99.90;;;;;;5093945;28;20203;-56
2022/01/04 08:14:39;;;;;;;8.03;5.33;;;8.30;99.90;;;;;;5108258;28;20628;-54
2022/01/04 08:17:07;;;;;;;6.80;5.17;;;8.20;99.90;;;;;;5105751;28;20263;-55
2022/01/04 08:19:36;;;;;;;11.00;7.07;;;8.30;99.90;;;;;;5100477;28;20780;-54
2022/01/04 08:22:06;;;;;;;6.77;5.53;;;8.20;99.90;;;;;;5110365;28;20645;-55
2022/01/04 08:24:34;;;;;;;8.60;6.47;;;8.10;99.90;;;;;;5112189;28;20254;-54
2022/01/04 08:27:02;;;;;;;7.67;6.17;;;8.20;99.90;;;;;;5113323;28;20263;-56
2022/01/04 08:29:31;;;;;;;6.93;5.77;;;8.20;99.90;;;;;;5114606;28;20257;-55
2022/01/04 08:32:00;;;;;;;6.10;4.80;;;8.10;99.90;;;;;;5101866;28;20205;-54
2022/01/04 08:34:29;;;;;;;3.63;3.10;;;8.10;99.90;;;;;;5125993;27;20207;-54
2022/01/04 08:36:57;;;;;;;3.10;2.80;;;8.20;99.90;;;;;;5100685;27;20708;-53
2022/01/04 08:39:27;;;;;;;3.50;3.00;;;8.20;99.90;;;;;;5113885;28;20242;-54
2022/01/04 08:42:00;;;;;;;3.00;2.70;;;8.20;99.90;;;;;;5114156;28;20252;-53
2022/01/04 08:44:29;;;;;;;2.67;2.40;;;8.20;99.90;;;;;;5114282;28;20217;-53
2022/01/04 08:46:57;;;;;;;2.70;2.50;;;8.20;99.90;;;;;;5113703;28;20648;-53
2022/01/04 08:49:26;;;;;;;3.23;2.50;;;8.10;99.90;;;;;;5114091;28;20687;-54
2022/01/04 08:51:54;;;;;;;8.40;6.93;;;8.10;99.90;;;;;;5113062;28;20257;-54
2022/01/04 08:54:22;;;;;;;6.87;6.00;;;8.10;99.90;;;;;;5134042;27;20207;-54
2022/01/04 08:56:51;;;;;;;8.70;6.47;;;8.10;99.90;;;;;;5133966;27;20230;-54
2022/01/04 08:59:20;;;;;;;7.07;5.97;;;8.20;99.90;;;;;;5120585;27;20261;-53
2022/01/04 09:01:48;;;;;;;8.83;5.83;;;8.20;99.90;;;;;;5093262;28;20259;-54
2022/01/04 09:04:16;;;;;;;8.80;5.90;;;8.20;99.90;;;;;;5093662;28;20210;-54
2022/01/04 09:06:44;;;;;;;8.17;5.83;;;8.30;99.90;;;;;;5092491;28;20709;-54
2022/01/04 09:09:12;;;;;;;6.17;5.00;;;8.20;99.90;;;;;;5093615;28;20307;-54
2022/01/04 09:11:40;;;;;;;5.80;4.83;;;8.20;99.90;;;;;;5093595;28;20196;-56
2022/01/04 09:14:23;;;;;;;5.97;4.60;;;8.30;99.90;;;;;;5103871;28;20203;-55
2022/01/04 09:19:37;;;;;;;2.50;2.30;;;8.40;99.90;;;;;;5112722;28;20265;-53
2022/01/04 09:22:06;;;;;;;2.10;2.00;;;8.40;99.90;;;;;;5107018;28;20651;-55
2022/01/04 09:24:34;;;;;;;2.30;2.10;;;8.40;99.90;;;;;;5092879;28;20244;-54
2022/01/04 09:27:06;;;;;;;2.60;2.03;;;8.40;99.90;;;;;;5110189;28;20235;-54
2022/01/04 09:29:35;;;;;;;2.57;2.00;;;8.40;99.90;;;;;;5117111;27;20261;-54
2022/01/04 09:32:05;;;;;;;12.13;10.53;;;8.50;99.90;;;;;;5133670;27;20264;-54
2022/01/04 09:34:35;;;;;;;2.80;2.60;;;8.50;99.90;;;;;;5108392;27;20238;-54
2022/01/04 09:37:04;;;;;;;11.83;10.63;;;8.50;99.90;;;;;;5110978;28;20241;-53
2022/01/04 09:39:32;;;;;;;10.20;8.77;;;8.40;99.90;;;;;;5113369;28;20196;-56
2022/01/04 09:42:00;;;;;;;37.83;30.87;;;8.50;99.90;;;;;;5112342;28;20791;-56
2022/01/04 09:44:29;;;;;;;30.37;27.17;;;8.50;99.90;;;;;;5112996;28;20213;-55
2022/01/04 09:47:02;;;;;;;31.67;28.93;;;8.50;99.90;;;;;;5103821;28;20306;-54
2022/01/04 09:49:31;;;;;;;4.20;3.80;;;8.50;99.90;;;;;;5110291;28;20228;-54
2022/01/04 09:51:59;;;;;;;7.50;4.40;;;8.50;99.90;;;;;;5103032;28;20198;-54
2022/01/04 09:54:28;;;;;;;23.83;21.40;;;8.50;99.90;;;;;;5092669;28;20201;-54
2022/01/04 09:56:57;;;;;;;5.07;3.63;;;8.50;99.90;;;;;;5093302;28;20894;-54
2022/01/04 09:59:25;;;;;;;5.63;5.00;;;8.50;99.90;;;;;;5112268;28;20627;-54
2022/01/04 10:02:00;;;;;;;19.07;16.80;;;8.50;99.90;;;;;;5112518;28;20276;-55
2022/01/04 10:04:30;;;;;;;16.77;14.13;;;8.50;99.90;;;;;;5112845;28;20206;-53
2022/01/04 10:07:01;;;;;;;17.10;15.30;;;8.50;99.90;;;;;;5112258;28;20234;-56
2022/01/04 10:09:44;;;;;;;20.30;18.20;;;8.50;99.90;;;;;;5112671;28;20257;-53
2022/01/04 10:12:13;;;;;;;14.33;11.30;;;8.50;99.90;;;;;;5104961;28;20248;-54
2022/01/04 10:14:44;;;;;;;9.57;6.40;;;8.50;99.90;;;;;;5112518;28;20199;-55
2022/01/04 10:17:14;;;;;;;5.53;4.90;;;8.50;99.90;;;;;;5112028;28;20227;-56
2022/01/04 10:19:46;;;;;;;44.20;23.67;;;8.50;99.90;;;;;;5111935;28;20245;-54
2022/01/04 10:22:26;;;;;;;40.83;27.60;;;8.50;99.90;;;;;;5112034;28;20272;-54
2022/01/04 10:25:11;;;;;;;41.27;24.83;;;8.50;99.90;;;;;;5112486;28;20201;-55
2022/01/04 10:27:41;;;;;;;43.67;27.37;;;8.50;99.90;;;;;;5089273;28;20232;-54
2022/01/04 10:30:20;;;;;;;24.13;16.47;;;8.50;99.90;;;;;;5098408;28;20231;-54
2022/01/04 10:32:55;;;;;;;3.53;3.23;;;8.50;99.90;;;;;;5112007;28;20275;-55
2022/01/04 10:35:28;;;;;;;8.90;7.77;;;8.50;99.90;;;;;;5112015;28;20253;-55
2022/01/04 10:37:58;;;;;;;3.50;2.90;;;8.50;99.90;;;;;;5111599;28;20254;-56
2022/01/04 10:40:27;;;;;;;12.97;11.53;;;8.40;99.90;;;;;;5112116;28;20294;-54
2022/01/04 10:43:07;;;;;;;4.97;3.80;;;8.50;99.90;;;;;;5111296;28;20707;-54
2022/01/04 10:45:36;;;;;;;1.87;1.77;;;8.50;99.90;;;;;;5097221;28;20236;-54
2022/01/04 10:48:26;;;;;;;1.57;1.47;;;8.50;99.90;;;;;;5090865;28;20246;-54
2022/01/04 10:50:58;;;;;;;3.27;1.60;;;8.50;99.90;;;;;;5092136;28;20242;-54
2022/01/04 10:53:28;;;;;;;4.80;4.23;;;8.50;99.90;;;;;;5111079;28;20196;-53
2022/01/04 10:56:00;;;;;;;2.43;2.23;;;8.50;99.90;;;;;;5111137;28;20204;-52
2022/01/04 10:58:32;;;;;;;2.80;1.90;;;8.50;99.90;;;;;;5111351;28;20204;-53
2022/01/04 11:01:03;;;;;;;4.70;3.57;;;8.40;99.90;;;;;;5090569;28;20677;-53
2022/01/04 11:03:34;;;;;;;4.40;3.57;;;8.40;99.90;;;;;;5090135;28;20287;-52
2022/01/04 11:06:07;;;;;;;4.77;2.50;;;8.40;99.90;;;;;;5083228;28;20286;-54
2022/01/04 11:08:36;;;;;;;35.60;29.37;;;8.40;99.90;;;;;;5104151;28;20656;-54
2022/01/04 11:11:05;;;;;;;8.93;7.97;;;8.40;99.90;;;;;;5111922;28;20207;-55
2022/01/04 11:13:33;;;;;;;2.27;2.07;;;8.50;99.90;;;;;;5102671;28;20208;-52
2022/01/04 11:16:04;;;;;;;2.33;2.10;;;8.50;99.90;;;;;;5124603;27;20255;-54
2022/01/04 11:18:32;;;;;;;3.30;2.33;;;8.50;99.90;;;;;;5099627;28;20256;-54
2022/01/04 11:21:01;;;;;;;2.40;2.10;;;8.40;99.90;;;;;;5111126;28;20261;-54
2022/01/04 11:23:33;;;;;;;5.97;4.50;;;8.30;99.90;;;;;;5125825;28;20254;-54
2022/01/04 11:26:03;;;;;;;4.00;3.50;;;8.30;99.90;;;;;;5123063;28;20200;-53
2022/01/04 11:28:31;;;;;;;3.37;2.07;;;8.20;99.90;;;;;;5090594;28;20235;-53
2022/01/04 11:31:28;;;;;;;2.73;2.53;;;8.20;99.90;;;;;;5090347;28;20286;-54
2022/01/04 11:34:01;;;;;;;3.37;2.77;;;8.20;99.90;;;;;;5097762;28;20204;-55
2022/01/04 11:36:34;;;;;;;3.83;2.33;;;8.20;99.90;;;;;;5109959;28;20227;-53
2022/01/04 11:39:25;;;;;;;1.80;1.50;;;8.20;99.90;;;;;;5110923;28;20207;-54
2022/01/04 11:41:53;;;;;;;2.40;2.20;;;8.30;99.90;;;;;;5110351;28;20257;-54
2022/01/04 11:44:23;;;;;;;2.07;1.50;;;8.30;99.90;;;;;;5110544;28;20268;-54
2022/01/04 11:47:01;;;;;;;4.30;1.50;;;8.30;99.90;;;;;;5110170;28;20228;-54
2022/01/04 11:49:30;;;;;;;1.53;1.40;;;8.30;99.90;;;;;;5108494;28;20293;-54
2022/01/04 11:51:58;;;;;;;2.53;2.33;;;8.30;99.90;;;;;;5089857;28;20204;-53
2022/01/04 11:54:30;;;;;;;2.23;1.60;;;8.30;99.90;;;;;;5130658;28;20207;-53
2022/01/04 11:57:02;;;;;;;2.17;1.60;;;8.40;99.90;;;;;;5131492;28;20277;-54
2022/01/04 11:59:34;;;;;;;2.93;1.63;;;8.30;99.90;;;;;;5115725;27;20204;-55
2022/01/04 12:02:28;;;;;;;1.87;1.70;;;8.30;99.90;;;;;;5094653;28;20298;-54
2022/01/04 12:04:58;;;;;;;3.17;2.10;;;8.30;99.90;;;;;;5107091;28;20587;-52
2022/01/04 12:07:45;;;;;;;2.00;1.90;;;8.30;99.90;;;;;;5114068;28;20651;-55
2022/01/04 12:10:48;;;;;;;1.93;1.80;;;8.30;99.90;;;;;;5094148;28;20250;-54
2022/01/04 12:13:18;;;;;;;2.00;1.80;;;8.30;99.90;;;;;;5103526;28;20198;-55
2022/01/04 12:15:52;;;;;;;1.60;1.50;;;8.30;99.90;;;;;;5114582;28;20208;-53
2022/01/04 12:19:00;;;;;;;1.93;1.73;;;8.30;99.90;;;;;;5120991;27;20629;-54
2022/01/04 12:21:47;;;;;;;2.53;1.80;;;8.20;99.90;;;;;;5093991;28;20212;-54
2022/01/04 12:24:22;;;;;;;2.70;2.30;;;8.10;99.90;;;;;;5095898;28;20242;-54
2022/01/04 12:27:09;;;;;;;6.83;5.17;;;8.10;99.90;;;;;;5105254;28;20235;-54
2022/01/04 12:29:38;;;;;;;4.30;3.53;;;8.10;99.90;;;;;;5114398;28;20246;-53
2022/01/04 12:32:09;;;;;;;5.83;3.60;;;8.10;99.90;;;;;;5113830;28;20217;-55
2022/01/04 12:35:03;;;;;;;2.53;2.33;;;8.20;99.90;;;;;;5113656;28;20555;-55
2022/01/04 12:37:36;;;;;;;14.33;11.77;;;8.30;99.90;;;;;;5106406;28;20278;-53
2022/01/04 12:40:06;;;;;;;12.50;9.07;;;8.30;99.90;;;;;;5104720;28;20267;-54
2022/01/04 12:42:34;;;;;;;11.23;7.97;;;8.30;99.90;;;;;;5107849;28;20274;-55
2022/01/04 12:45:05;;;;;;;3.70;3.30;;;8.30;99.90;;;;;;5093827;28;20300;-56
2022/01/04 12:47:35;;;;;;;3.73;3.07;;;8.20;99.90;;;;;;5110904;28;20643;-54
2022/01/04 12:50:05;;;;;;;5.23;4.23;;;8.20;99.90;;;;;;5114115;28;20200;-54
2022/01/04 12:52:33;;;;;;;3.70;2.70;;;8.20;99.90;;;;;;5117284;27;20223;-54
2022/01/04 12:55:09;;;;;;;2.33;2.13;;;8.10;99.90;;;;;;5134673;27;20230;-51
2022/01/04 12:57:37;;;;;;;3.13;2.47;;;8.10;99.90;;;;;;5133614;27;20710;-52
2022/01/04 13:00:14;;;;;;;2.77;2.57;;;8.10;99.90;;;;;;5112449;27;20253;-54
2022/01/04 13:02:42;;;;;;;2.50;2.30;;;8.10;99.90;;;;;;5113497;28;20789;-52
2022/01/04 13:05:15;;;;;;;3.53;2.80;;;8.20;99.90;;;;;;5113212;28;20207;-54
2022/01/04 13:07:45;;;;;;;4.17;3.00;;;8.20;99.90;;;;;;5113399;28;20223;-53
2022/01/04 13:10:15;;;;;;;3.50;3.20;;;8.30;99.90;;;;;;5112786;28;20207;-53
2022/01/04 13:12:45;;;;;;;2.90;2.70;;;8.20;99.90;;;;;;5098197;28;20192;-54
2022/01/04 13:15:17;;;;;;;3.03;2.70;;;8.20;99.90;;;;;;5123956;27;20290;-54
2022/01/04 13:17:47;;;;;;;5.30;2.60;;;8.20;99.90;;;;;;5133364;27;20263;-54